sensor_id;sensor_type;location;lat;lon;timestamp;temperature;humidity
16801;DHT22;8518;53.236;10.384;2022-09-19T00:01:39;10.30;99.90
16801;DHT22;8518;53.236;10.384;2022-09-19T00:04:09;10.30;99.90
16801;DHT22;8518;53.236;10.384;2022-09-19T00:06:37;10.30;99.90
16801;DHT22;8518;53.236;10.384;2022-09-19T00:09:06;10.40;99.90
16801;DHT22;8518;53.236;10.384;2022-09-19T00:11:31;10.30;99.90
16801;DHT22;8518;53.236;10.384;2022-09-19T00:13:58;10.40;99.90
16801;DHT22;8518;53.236;10.384;2022-09-19T00:16:27;10.40;99.90
16801;DHT22;8518;53.236;10.384;2022-09-19T00:18:57;10.40;99.90
16801;DHT22;8518;53.236;10.384;2022-09-19T00:21:28;10.40;99.90
16801;DHT22;8518;53.236;10.384;2022-09-19T00:23:55;10.40;99.90
16801;DHT22;8518;53.236;10.384;2022-09-19T00:26:39;10.40;99.90
16801;DHT22;8518;53.236;10.384;2022-09-19T00:29:06;10.40;99.90
16801;DHT22;8518;53.236;10.384;2022-09-19T00:31:32;10.40;99.90
16801;DHT22;8518;53.236;10.384;2022-09-19T00:33:58;10.50;99.90
16801;DHT22;8518;53.236;10.384;2022-09-19T00:36:24;10.50;99.90
16801;DHT22;8518;53.236;10.384;2022-09-19T00:38:50;10.50;99.90
16801;DHT22;8518;53.236;10.384;2022-09-19T00:41:21;10.50;99.90
16801;DHT22;8518;53.236;10.384;2022-09-19T00:43:49;10.50;99.90
16801;DHT22;8518;53.236;10.384;2022-09-19T00:46:16;10.50;99.90
16801;DHT22;8518;53.236;10.384;2022-09-19T00:48:44;10.50;99.90
16801;DHT22;8518;53.236;10.384;2022-09-19T00:51:19;10.50;99.90
16801;DHT22;8518;53.236;10.384;2022-09-19T00:53:46;10.40;99.90
16801;DHT22;8518;53.236;10.384;2022-09-19T00:56:13;10.40;99.90
16801;DHT22;8518;53.236;10.384;2022-09-19T00:58:42;10.30;99.90
16801;DHT22;8518;53.236;10.384;2022-09-19T01:01:11;10.20;99.90
16801;DHT22;8518;53.236;10.384;2022-09-19T01:03:36;10.20;99.90
16801;DHT22;8518;53.236;10.384;2022-09-19T01:06:09;10.10;99.90
16801;DHT22;8518;53.236;10.384;2022-09-19T01:16:18;9.80;99.90
16801;DHT22;8518;53.236;10.384;2022-09-19T01:18:55;9.70;99.90
16801;DHT22;8518;53.236;10.384;2022-09-19T01:21:31;9.60;99.90
16801;DHT22;8518;53.236;10.384;2022-09-19T01:24:29;9.50;99.90
16801;DHT22;8518;53.236;10.384;2022-09-19T01:30:00;9.40;99.90
16801;DHT22;8518;53.236;10.384;2022-09-19T01:33:03;9.40;99.90
16801;DHT22;8518;53.236;10.384;2022-09-19T01:35:33;9.30;99.90
16801;DHT22;8518;53.236;10.384;2022-09-19T01:38:18;9.20;99.90
16801;DHT22;8518;53.236;10.384;2022-09-19T01:40:48;9.20;99.90
16801;DHT22;8518;53.236;10.384;2022-09-19T01:43:16;9.20;99.90
16801;DHT22;8518;53.236;10.384;2022-09-19T01:45:42;9.20;99.90
16801;DHT22;8518;53.236;10.384;2022-09-19T01:48:29;9.10;99.90
16801;DHT22;8518;53.236;10.384;2022-09-19T01:51:16;9.10;99.90
16801;DHT22;8518;53.236;10.384;2022-09-19T01:53:51;9.10;99.90
16801;DHT22;8518;53.236;10.384;2022-09-19T01:56:55;9.00;99.90
16801;DHT22;8518;53.236;10.384;2022-09-19T02:02:23;9.00;99.90
16801;DHT22;8518;53.236;10.384;2022-09-19T02:05:02;8.90;99.90
16801;DHT22;8518;53.236;10.384;2022-09-19T02:10:34;8.90;99.90
16801;DHT22;8518;53.236;10.384;2022-09-19T02:13:04;8.80;99.90
16801;DHT22;8518;53.236;10.384;2022-09-19T02:15:35;8.80;99.90
16801;DHT22;8518;53.236;10.384;2022-09-19T02:18:07;8.70;99.90
16801;DHT22;8518;53.236;10.384;2022-09-19T02:20:38;8.70;99.90
16801;DHT22;8518;53.236;10.384;2022-09-19T02:23:14;8.70;99.90
16801;DHT22;8518;53.236;10.384;2022-09-19T02:25:42;8.70;99.90
16801;DHT22;8518;53.236;10.384;2022-09-19T02:28:14;8.70;99.90
16801;DHT22;8518;53.236;10.384;2022-09-19T02:30:42;8.70;99.90
16801;DHT22;8518;53.236;10.384;2022-09-19T02:33:10;8.70;99.90
16801;DHT22;8518;53.236;10.384;2022-09-19T02:40:56;8.70;99.90
16801;DHT22;8518;53.236;10.384;2022-09-19T02:43:38;8.60;99.90
16801;DHT22;8518;53.236;10.384;2022-09-19T02:46:21;8.60;99.90
16801;DHT22;8518;53.236;10.384;2022-09-19T02:48:53;8.70;99.90
16801;DHT22;8518;53.236;10.384;2022-09-19T02:51:34;8.60;99.90
16801;DHT22;8518;53.236;10.384;2022-09-19T02:54:07;8.60;99.90
16801;DHT22;8518;53.236;10.384;2022-09-19T02:56:34;8.60;99.90
16801;DHT22;8518;53.236;10.384;2022-09-19T02:59:05;8.60;99.90
16801;DHT22;8518;53.236;10.384;2022-09-19T03:01:33;8.50;99.90
16801;DHT22;8518;53.236;10.384;2022-09-19T03:04:12;8.60;99.90
16801;DHT22;8518;53.236;10.384;2022-09-19T03:09:30;8.50;99.90
16801;DHT22;8518;53.236;10.384;2022-09-19T03:12:12;8.50;99.90
16801;DHT22;8518;53.236;10.384;2022-09-19T03:14:40;8.50;99.90
16801;DHT22;8518;53.236;10.384;2022-09-19T03:17:06;8.50;99.90
16801;DHT22;8518;53.236;10.384;2022-09-19T03:19:32;8.50;99.90
16801;DHT22;8518;53.236;10.384;2022-09-19T03:21:58;8.40;99.90
16801;DHT22;8518;53.236;10.384;2022-09-19T03:24:24;8.40;99.90
16801;DHT22;8518;53.236;10.384;2022-09-19T03:26:51;8.40;99.90
16801;DHT22;8518;53.236;10.384;2022-09-19T03:29:17;8.50;99.90
16801;DHT22;8518;53.236;10.384;2022-09-19T03:31:43;8.40;99.90
16801;DHT22;8518;53.236;10.384;2022-09-19T03:34:16;8.50;99.90
16801;DHT22;8518;53.236;10.384;2022-09-19T03:36:43;8.50;99.90
16801;DHT22;8518;53.236;10.384;2022-09-19T03:39:09;8.40;99.90
16801;DHT22;8518;53.236;10.384;2022-09-19T03:41:34;8.40;99.90
16801;DHT22;8518;53.236;10.384;2022-09-19T03:44:03;8.40;99.90
16801;DHT22;8518;53.236;10.384;2022-09-19T03:46:31;8.40;99.90
16801;DHT22;8518;53.236;10.384;2022-09-19T03:48:57;8.40;99.90
16801;DHT22;8518;53.236;10.384;2022-09-19T03:51:26;8.40;99.90
16801;DHT22;8518;53.236;10.384;2022-09-19T03:53:52;8.40;99.90
16801;DHT22;8518;53.236;10.384;2022-09-19T03:56:17;8.50;99.90
16801;DHT22;8518;53.236;10.384;2022-09-19T03:58:43;8.50;99.90
16801;DHT22;8518;53.236;10.384;2022-09-19T04:01:10;8.50;99.90
16801;DHT22;8518;53.236;10.384;2022-09-19T04:03:38;8.50;99.90
16801;DHT22;8518;53.236;10.384;2022-09-19T04:06:04;8.50;99.90
16801;DHT22;8518;53.236;10.384;2022-09-19T04:08:31;8.50;99.90
16801;DHT22;8518;53.236;10.384;2022-09-19T04:10:57;8.50;99.90
16801;DHT22;8518;53.236;10.384;2022-09-19T04:13:25;8.50;99.90
16801;DHT22;8518;53.236;10.384;2022-09-19T04:15:51;8.50;99.90
16801;DHT22;8518;53.236;10.384;2022-09-19T04:18:17;8.40;99.90
16801;DHT22;8518;53.236;10.384;2022-09-19T04:20:44;8.50;99.90
16801;DHT22;8518;53.236;10.384;2022-09-19T04:23:10;8.40;99.90
16801;DHT22;8518;53.236;10.384;2022-09-19T04:25:40;8.40;99.90
16801;DHT22;8518;53.236;10.384;2022-09-19T04:28:08;8.40;99.90
16801;DHT22;8518;53.236;10.384;2022-09-19T04:30:38;8.40;99.90
16801;DHT22;8518;53.236;10.384;2022-09-19T04:33:07;8.40;99.90
16801;DHT22;8518;53.236;10.384;2022-09-19T04:35:34;8.40;99.90
16801;DHT22;8518;53.236;10.384;2022-09-19T04:38:16;8.40;99.90
16801;DHT22;8518;53.236;10.384;2022-09-19T04:40:47;8.40;99.90
16801;DHT22;8518;53.236;10.384;2022-09-19T04:43:15;8.30;99.90
16801;DHT22;8518;53.236;10.384;2022-09-19T04:45:41;8.30;99.90
16801;DHT22;8518;53.236;10.384;2022-09-19T04:48:13;8.30;99.90
16801;DHT22;8518;53.236;10.384;2022-09-19T04:50:39;8.30;99.90
16801;DHT22;8518;53.236;10.384;2022-09-19T04:53:05;8.30;99.90
16801;DHT22;8518;53.236;10.384;2022-09-19T04:55:31;8.30;99.90
16801;DHT22;8518;53.236;10.384;2022-09-19T04:57:57;8.30;99.90
16801;DHT22;8518;53.236;10.384;2022-09-19T05:00:24;8.40;99.90
16801;DHT22;8518;53.236;10.384;2022-09-19T05:03:09;8.40;99.90
16801;DHT22;8518;53.236;10.384;2022-09-19T05:05:39;8.40;99.90
16801;DHT22;8518;53.236;10.384;2022-09-19T05:08:28;8.40;99.90
16801;DHT22;8518;53.236;10.384;2022-09-19T05:10:55;8.50;99.90
16801;DHT22;8518;53.236;10.384;2022-09-19T05:13:25;8.50;99.90
16801;DHT22;8518;53.236;10.384;2022-09-19T05:15:53;8.60;99.90
16801;DHT22;8518;53.236;10.384;2022-09-19T05:18:20;8.60;99.90
16801;DHT22;8518;53.236;10.384;2022-09-19T05:20:48;8.70;99.90
16801;DHT22;8518;53.236;10.384;2022-09-19T05:23:14;8.80;99.90
16801;DHT22;8518;53.236;10.384;2022-09-19T05:25:40;8.90;99.90
16801;DHT22;8518;53.236;10.384;2022-09-19T05:28:06;9.00;99.90
16801;DHT22;8518;53.236;10.384;2022-09-19T05:30:45;9.10;99.90
16801;DHT22;8518;53.236;10.384;2022-09-19T05:33:12;9.20;99.90
16801;DHT22;8518;53.236;10.384;2022-09-19T05:35:38;9.30;99.90
16801;DHT22;8518;53.236;10.384;2022-09-19T05:38:04;9.30;99.90
16801;DHT22;8518;53.236;10.384;2022-09-19T05:40:30;9.40;99.90
16801;DHT22;8518;53.236;10.384;2022-09-19T05:42:56;9.50;99.90
16801;DHT22;8518;53.236;10.384;2022-09-19T05:45:28;9.50;99.90
16801;DHT22;8518;53.236;10.384;2022-09-19T05:48:02;9.60;99.90
16801;DHT22;8518;53.236;10.384;2022-09-19T05:50:29;9.60;99.90
16801;DHT22;8518;53.236;10.384;2022-09-19T05:52:55;9.70;99.90
16801;DHT22;8518;53.236;10.384;2022-09-19T05:55:39;9.80;99.90
16801;DHT22;8518;53.236;10.384;2022-09-19T05:58:06;9.80;99.90
16801;DHT22;8518;53.236;10.384;2022-09-19T06:00:32;9.90;99.90
16801;DHT22;8518;53.236;10.384;2022-09-19T06:03:00;10.00;99.90
16801;DHT22;8518;53.236;10.384;2022-09-19T06:05:28;10.00;99.90
16801;DHT22;8518;53.236;10.384;2022-09-19T06:07:58;10.20;99.90
16801;DHT22;8518;53.236;10.384;2022-09-19T06:10:24;10.20;99.90
16801;DHT22;8518;53.236;10.384;2022-09-19T06:12:52;10.20;99.90
16801;DHT22;8518;53.236;10.384;2022-09-19T06:15:17;10.20;99.90
16801;DHT22;8518;53.236;10.384;2022-09-19T06:17:43;10.30;99.90
16801;DHT22;8518;53.236;10.384;2022-09-19T06:20:10;10.40;99.90
16801;DHT22;8518;53.236;10.384;2022-09-19T06:22:37;10.40;99.90
16801;DHT22;8518;53.236;10.384;2022-09-19T06:25:03;10.50;99.90
16801;DHT22;8518;53.236;10.384;2022-09-19T06:27:29;10.50;99.90
16801;DHT22;8518;53.236;10.384;2022-09-19T06:29:54;10.60;99.90
16801;DHT22;8518;53.236;10.384;2022-09-19T06:32:20;10.80;99.90
16801;DHT22;8518;53.236;10.384;2022-09-19T06:34:46;10.90;99.90
16801;DHT22;8518;53.236;10.384;2022-09-19T06:37:12;11.00;99.90
16801;DHT22;8518;53.236;10.384;2022-09-19T06:39:38;11.10;99.90
16801;DHT22;8518;53.236;10.384;2022-09-19T06:42:04;11.20;99.90
16801;DHT22;8518;53.236;10.384;2022-09-19T06:44:30;11.30;99.90
16801;DHT22;8518;53.236;10.384;2022-09-19T06:46:56;11.50;99.90
16801;DHT22;8518;53.236;10.384;2022-09-19T06:49:23;11.70;99.90
16801;DHT22;8518;53.236;10.384;2022-09-19T06:51:49;11.80;99.90
16801;DHT22;8518;53.236;10.384;2022-09-19T06:54:15;11.90;99.90
16801;DHT22;8518;53.236;10.384;2022-09-19T06:56:41;12.00;99.90
16801;DHT22;8518;53.236;10.384;2022-09-19T06:59:07;12.20;99.90
16801;DHT22;8518;53.236;10.384;2022-09-19T07:01:33;12.50;99.90
16801;DHT22;8518;53.236;10.384;2022-09-19T07:03:59;12.80;99.90
16801;DHT22;8518;53.236;10.384;2022-09-19T07:06:25;13.30;99.90
16801;DHT22;8518;53.236;10.384;2022-09-19T07:08:50;13.80;99.90
16801;DHT22;8518;53.236;10.384;2022-09-19T07:11:16;14.40;99.90
16801;DHT22;8518;53.236;10.384;2022-09-19T07:13:48;14.90;99.90
16801;DHT22;8518;53.236;10.384;2022-09-19T07:16:13;15.40;99.90
16801;DHT22;8518;53.236;10.384;2022-09-19T07:18:39;15.80;99.90
16801;DHT22;8518;53.236;10.384;2022-09-19T07:21:04;16.20;99.90
16801;DHT22;8518;53.236;10.384;2022-09-19T07:23:30;16.80;99.90
16801;DHT22;8518;53.236;10.384;2022-09-19T07:25:56;17.40;99.90
16801;DHT22;8518;53.236;10.384;2022-09-19T07:28:22;18.10;99.90
16801;DHT22;8518;53.236;10.384;2022-09-19T07:30:48;18.70;99.90
16801;DHT22;8518;53.236;10.384;2022-09-19T07:33:16;19.70;99.90
16801;DHT22;8518;53.236;10.384;2022-09-19T07:35:43;20.80;99.90
16801;DHT22;8518;53.236;10.384;2022-09-19T07:38:14;21.60;99.90
16801;DHT22;8518;53.236;10.384;2022-09-19T07:40:43;22.50;99.90
16801;DHT22;8518;53.236;10.384;2022-09-19T07:43:10;23.50;99.90
16801;DHT22;8518;53.236;10.384;2022-09-19T07:45:43;24.70;99.90
16801;DHT22;8518;53.236;10.384;2022-09-19T07:48:09;26.00;97.70
16801;DHT22;8518;53.236;10.384;2022-09-19T07:50:35;27.40;94.30
16801;DHT22;8518;53.236;10.384;2022-09-19T07:55:28;29.10;85.00
16801;DHT22;8518;53.236;10.384;2022-09-19T07:57:57;30.10;79.50
16801;DHT22;8518;53.236;10.384;2022-09-19T08:00:24;30.70;73.70
16801;DHT22;8518;53.236;10.384;2022-09-19T08:03:10;31.20;70.70
16801;DHT22;8518;53.236;10.384;2022-09-19T08:05:39;31.40;67.60
16801;DHT22;8518;53.236;10.384;2022-09-19T08:08:06;31.60;66.10
16801;DHT22;8518;53.236;10.384;2022-09-19T08:10:32;32.20;64.30
16801;DHT22;8518;53.236;10.384;2022-09-19T08:13:01;32.30;62.30
16801;DHT22;8518;53.236;10.384;2022-09-19T08:15:28;32.50;61.80
16801;DHT22;8518;53.236;10.384;2022-09-19T08:20:25;33.40;59.50
16801;DHT22;8518;53.236;10.384;2022-09-19T08:23:01;33.90;58.10
16801;DHT22;8518;53.236;10.384;2022-09-19T08:25:30;34.80;56.20
16801;DHT22;8518;53.236;10.384;2022-09-19T08:27:57;35.70;54.80
16801;DHT22;8518;53.236;10.384;2022-09-19T08:30:24;36.80;52.30
16801;DHT22;8518;53.236;10.384;2022-09-19T08:32:52;37.10;50.90
16801;DHT22;8518;53.236;10.384;2022-09-19T08:35:20;36.60;50.10
16801;DHT22;8518;53.236;10.384;2022-09-19T08:37:52;35.70;50.90
16801;DHT22;8518;53.236;10.384;2022-09-19T08:46:00;35.10;51.90
16801;DHT22;8518;53.236;10.384;2022-09-19T08:48:56;34.30;51.70
16801;DHT22;8518;53.236;10.384;2022-09-19T08:51:32;33.40;53.40
16801;DHT22;8518;53.236;10.384;2022-09-19T08:54:30;33.30;54.50
16801;DHT22;8518;53.236;10.384;2022-09-19T08:56:59;32.90;54.10
16801;DHT22;8518;53.236;10.384;2022-09-19T08:59:29;31.70;55.50
16801;DHT22;8518;53.236;10.384;2022-09-19T09:04:46;30.90;58.30
16801;DHT22;8518;53.236;10.384;2022-09-19T09:07:20;32.20;56.80
16801;DHT22;8518;53.236;10.384;2022-09-19T09:15:19;31.40;56.70
16801;DHT22;8518;53.236;10.384;2022-09-19T09:23:11;33.30;53.70
16801;DHT22;8518;53.236;10.384;2022-09-19T09:25:44;33.10;54.20
16801;DHT22;8518;53.236;10.384;2022-09-19T09:31:23;33.40;53.40
16801;DHT22;8518;53.236;10.384;2022-09-19T09:34:04;35.00;50.70
16801;DHT22;8518;53.236;10.384;2022-09-19T09:36:51;35.50;49.40
16801;DHT22;8518;53.236;10.384;2022-09-19T09:41:54;33.30;50.00
16801;DHT22;8518;53.236;10.384;2022-09-19T09:49:25;32.30;52.10
16801;DHT22;8518;53.236;10.384;2022-09-19T09:55:20;30.70;54.20
16801;DHT22;8518;53.236;10.384;2022-09-19T09:59:02;29.40;56.90
16801;DHT22;8518;53.236;10.384;2022-09-19T10:01:50;29.40;58.80
16801;DHT22;8518;53.236;10.384;2022-09-19T10:04:46;29.30;58.40
16801;DHT22;8518;53.236;10.384;2022-09-19T10:07:23;28.30;59.20
16801;DHT22;8518;53.236;10.384;2022-09-19T10:10:10;29.00;60.90
16801;DHT22;8518;53.236;10.384;2022-09-19T10:12:55;31.00;56.70
16801;DHT22;8518;53.236;10.384;2022-09-19T10:15:25;32.70;53.40
16801;DHT22;8518;53.236;10.384;2022-09-19T10:18:00;34.80;50.40
16801;DHT22;8518;53.236;10.384;2022-09-19T10:20:37;36.70;48.20
16801;DHT22;8518;53.236;10.384;2022-09-19T10:23:09;36.10;47.60
16801;DHT22;8518;53.236;10.384;2022-09-19T10:25:37;33.50;48.80
16801;DHT22;8518;53.236;10.384;2022-09-19T10:28:27;30.50;52.50
16801;DHT22;8518;53.236;10.384;2022-09-19T10:30:58;27.70;58.20
16801;DHT22;8518;53.236;10.384;2022-09-19T10:35:52;25.10;72.90
16801;DHT22;8518;53.236;10.384;2022-09-19T10:38:25;25.20;77.80
16801;DHT22;8518;53.236;10.384;2022-09-19T10:40:56;25.20;80.60
16801;DHT22;8518;53.236;10.384;2022-09-19T10:46:00;24.30;88.20
16801;DHT22;8518;53.236;10.384;2022-09-19T10:48:39;24.00;91.60
16801;DHT22;8518;53.236;10.384;2022-09-19T10:51:07;24.10;92.70
16801;DHT22;8518;53.236;10.384;2022-09-19T10:53:36;25.70;91.50
16801;DHT22;8518;53.236;10.384;2022-09-19T10:56:26;28.30;83.20
16801;DHT22;8518;53.236;10.384;2022-09-19T10:59:04;31.10;67.00
16801;DHT22;8518;53.236;10.384;2022-09-19T11:01:31;32.90;59.60
16801;DHT22;8518;53.236;10.384;2022-09-19T11:06:58;36.60;50.10
16801;DHT22;8518;53.236;10.384;2022-09-19T11:09:32;38.70;47.30
16801;DHT22;8518;53.236;10.384;2022-09-19T11:12:13;40.60;43.80
16801;DHT22;8518;53.236;10.384;2022-09-19T11:14:45;41.30;41.90
16801;DHT22;8518;53.236;10.384;2022-09-19T11:26:13;30.80;48.70
16801;DHT22;8518;53.236;10.384;2022-09-19T11:28:48;29.00;51.80
16801;DHT22;8518;53.236;10.384;2022-09-19T11:34:20;25.70;59.30
16801;DHT22;8518;53.236;10.384;2022-09-19T11:45:11;21.60;93.20
16801;DHT22;8518;53.236;10.384;2022-09-19T11:55:52;18.70;99.90
16801;DHT22;8518;53.236;10.384;2022-09-19T11:58:29;18.50;99.90
16801;DHT22;8518;53.236;10.384;2022-09-19T12:00:58;18.50;99.90
16801;DHT22;8518;53.236;10.384;2022-09-19T12:11:26;26.10;89.90
16801;DHT22;8518;53.236;10.384;2022-09-19T12:13:57;28.10;80.30
16801;DHT22;8518;53.236;10.384;2022-09-19T12:19:16;28.00;75.00
16801;DHT22;8518;53.236;10.384;2022-09-19T12:21:55;28.90;71.10
16801;DHT22;8518;53.236;10.384;2022-09-19T12:24:36;27.90;70.90
16801;DHT22;8518;53.236;10.384;2022-09-19T12:27:44;27.40;72.30
16801;DHT22;8518;53.236;10.384;2022-09-19T12:30:14;26.00;76.20
16801;DHT22;8518;53.236;10.384;2022-09-19T12:43:32;20.80;99.90
16801;DHT22;8518;53.236;10.384;2022-09-19T12:51:22;19.90;99.90
16801;DHT22;8518;53.236;10.384;2022-09-19T12:53:57;20.50;99.90
16801;DHT22;8518;53.236;10.384;2022-09-19T12:56:38;20.30;99.90
16801;DHT22;8518;53.236;10.384;2022-09-19T12:59:23;19.40;99.90
16801;DHT22;8518;53.236;10.384;2022-09-19T13:02:01;18.60;99.90
16801;DHT22;8518;53.236;10.384;2022-09-19T13:07:27;17.60;99.90
16801;DHT22;8518;53.236;10.384;2022-09-19T13:10:29;17.00;99.90
16801;DHT22;8518;53.236;10.384;2022-09-19T13:13:09;16.10;99.90
16801;DHT22;8518;53.236;10.384;2022-09-19T13:15:48;15.40;99.90
16801;DHT22;8518;53.236;10.384;2022-09-19T13:18:15;15.00;99.90
16801;DHT22;8518;53.236;10.384;2022-09-19T13:21:01;14.50;99.90
16801;DHT22;8518;53.236;10.384;2022-09-19T13:23:56;14.40;99.90
16801;DHT22;8518;53.236;10.384;2022-09-19T13:26:33;14.50;99.90
16801;DHT22;8518;53.236;10.384;2022-09-19T13:34:40;14.60;99.90
16801;DHT22;8518;53.236;10.384;2022-09-19T13:46:25;13.20;99.90
16801;DHT22;8518;53.236;10.384;2022-09-19T13:48:55;12.90;99.90
16801;DHT22;8518;53.236;10.384;2022-09-19T13:51:42;12.70;99.90
16801;DHT22;8518;53.236;10.384;2022-09-19T13:59:50;12.20;99.90
16801;DHT22;8518;53.236;10.384;2022-09-19T14:02:40;12.00;99.90
16801;DHT22;8518;53.236;10.384;2022-09-19T14:05:19;11.90;99.90
16801;DHT22;8518;53.236;10.384;2022-09-19T14:10:27;11.90;99.90
16801;DHT22;8518;53.236;10.384;2022-09-19T14:13:01;11.80;99.90
16801;DHT22;8518;53.236;10.384;2022-09-19T14:15:43;11.80;99.90
16801;DHT22;8518;53.236;10.384;2022-09-19T14:23:13;11.80;99.90
16801;DHT22;8518;53.236;10.384;2022-09-19T14:25:42;11.70;99.90
16801;DHT22;8518;53.236;10.384;2022-09-19T14:36:51;11.60;99.90
16801;DHT22;8518;53.236;10.384;2022-09-19T14:45:04;11.40;99.90
16801;DHT22;8518;53.236;10.384;2022-09-19T14:47:40;11.40;99.90
16801;DHT22;8518;53.236;10.384;2022-09-19T14:50:22;11.40;99.90
16801;DHT22;8518;53.236;10.384;2022-09-19T14:52:57;11.40;99.90
16801;DHT22;8518;53.236;10.384;2022-09-19T14:55:35;11.40;99.90
16801;DHT22;8518;53.236;10.384;2022-09-19T14:58:28;11.40;99.90
16801;DHT22;8518;53.236;10.384;2022-09-19T15:03:46;11.40;99.90
16801;DHT22;8518;53.236;10.384;2022-09-19T15:06:33;11.40;99.90
16801;DHT22;8518;53.236;10.384;2022-09-19T15:09:00;11.50;99.90
16801;DHT22;8518;53.236;10.384;2022-09-19T15:11:27;11.60;99.90
16801;DHT22;8518;53.236;10.384;2022-09-19T15:13:53;11.80;99.90
16801;DHT22;8518;53.236;10.384;2022-09-19T15:16:25;12.20;99.90
16801;DHT22;8518;53.236;10.384;2022-09-19T15:18:54;12.60;99.90
16801;DHT22;8518;53.236;10.384;2022-09-19T15:21:31;13.00;99.90
16801;DHT22;8518;53.236;10.384;2022-09-19T15:23:59;13.50;99.90
16801;DHT22;8518;53.236;10.384;2022-09-19T15:26:28;13.80;99.90
16801;DHT22;8518;53.236;10.384;2022-09-19T15:29:04;14.10;99.90
16801;DHT22;8518;53.236;10.384;2022-09-19T15:31:33;14.30;99.90
16801;DHT22;8518;53.236;10.384;2022-09-19T15:34:31;14.50;99.90
16801;DHT22;8518;53.236;10.384;2022-09-19T15:36:57;14.70;99.90
16801;DHT22;8518;53.236;10.384;2022-09-19T15:39:24;14.90;99.90
16801;DHT22;8518;53.236;10.384;2022-09-19T15:41:50;15.10;99.90
16801;DHT22;8518;53.236;10.384;2022-09-19T15:44:26;15.20;99.90
16801;DHT22;8518;53.236;10.384;2022-09-19T15:47:00;15.20;99.90
16801;DHT22;8518;53.236;10.384;2022-09-19T15:49:30;15.20;99.90
16801;DHT22;8518;53.236;10.384;2022-09-19T15:52:01;15.10;99.90
16801;DHT22;8518;53.236;10.384;2022-09-19T15:54:28;15.10;99.90
16801;DHT22;8518;53.236;10.384;2022-09-19T15:56:58;15.00;99.90
16801;DHT22;8518;53.236;10.384;2022-09-19T15:59:35;14.80;99.90
16801;DHT22;8518;53.236;10.384;2022-09-19T16:02:04;14.70;99.90
16801;DHT22;8518;53.236;10.384;2022-09-19T16:04:41;14.60;99.90
16801;DHT22;8518;53.236;10.384;2022-09-19T16:07:26;14.60;99.90
16801;DHT22;8518;53.236;10.384;2022-09-19T16:12:49;14.50;99.90
16801;DHT22;8518;53.236;10.384;2022-09-19T16:15:33;14.50;99.90
16801;DHT22;8518;53.236;10.384;2022-09-19T16:23:05;14.30;99.90
16801;DHT22;8518;53.236;10.384;2022-09-19T16:28:27;14.10;99.90
16801;DHT22;8518;53.236;10.384;2022-09-19T16:30:57;14.00;99.90
16801;DHT22;8518;53.236;10.384;2022-09-19T16:33:47;13.90;99.90
16801;DHT22;8518;53.236;10.384;2022-09-19T16:36:14;13.90;99.90
16801;DHT22;8518;53.236;10.384;2022-09-19T16:39:08;13.80;99.90
16801;DHT22;8518;53.236;10.384;2022-09-19T16:42:01;13.80;99.90
16801;DHT22;8518;53.236;10.384;2022-09-19T16:47:15;13.90;99.90
16801;DHT22;8518;53.236;10.384;2022-09-19T16:49:42;13.80;99.90
16801;DHT22;8518;53.236;10.384;2022-09-19T16:54:46;13.80;99.90
16801;DHT22;8518;53.236;10.384;2022-09-19T16:57:13;13.80;99.90
16801;DHT22;8518;53.236;10.384;2022-09-19T16:59:43;13.90;99.90
16801;DHT22;8518;53.236;10.384;2022-09-19T17:02:26;14.00;99.90
16801;DHT22;8518;53.236;10.384;2022-09-19T17:04:53;14.00;99.90
16801;DHT22;8518;53.236;10.384;2022-09-19T17:07:19;14.00;99.90
16801;DHT22;8518;53.236;10.384;2022-09-19T17:09:50;13.90;99.90
16801;DHT22;8518;53.236;10.384;2022-09-19T17:12:17;13.80;99.90
16801;DHT22;8518;53.236;10.384;2022-09-19T17:14:43;13.80;99.90
16801;DHT22;8518;53.236;10.384;2022-09-19T17:17:10;13.70;99.90
16801;DHT22;8518;53.236;10.384;2022-09-19T17:19:40;13.50;99.90
16801;DHT22;8518;53.236;10.384;2022-09-19T17:22:18;13.40;99.90
16801;DHT22;8518;53.236;10.384;2022-09-19T17:24:44;13.30;99.90
16801;DHT22;8518;53.236;10.384;2022-09-19T17:27:11;13.20;99.90
16801;DHT22;8518;53.236;10.384;2022-09-19T17:29:38;13.10;99.90
16801;DHT22;8518;53.236;10.384;2022-09-19T17:32:05;13.00;99.90
16801;DHT22;8518;53.236;10.384;2022-09-19T17:34:32;13.00;99.90
16801;DHT22;8518;53.236;10.384;2022-09-19T17:36:58;13.00;99.90
16801;DHT22;8518;53.236;10.384;2022-09-19T17:39:23;13.00;99.90
16801;DHT22;8518;53.236;10.384;2022-09-19T17:41:49;12.90;99.90
16801;DHT22;8518;53.236;10.384;2022-09-19T17:44:15;12.90;99.90
16801;DHT22;8518;53.236;10.384;2022-09-19T17:46:42;13.00;99.90
16801;DHT22;8518;53.236;10.384;2022-09-19T17:49:08;12.90;99.90
16801;DHT22;8518;53.236;10.384;2022-09-19T17:51:34;12.90;99.90
16801;DHT22;8518;53.236;10.384;2022-09-19T17:54:00;12.90;99.90
16801;DHT22;8518;53.236;10.384;2022-09-19T17:56:27;12.90;99.90
16801;DHT22;8518;53.236;10.384;2022-09-19T17:58:55;12.80;99.90
16801;DHT22;8518;53.236;10.384;2022-09-19T18:01:22;12.70;99.90
16801;DHT22;8518;53.236;10.384;2022-09-19T18:04:07;12.50;99.90
16801;DHT22;8518;53.236;10.384;2022-09-19T18:06:33;12.40;99.90
16801;DHT22;8518;53.236;10.384;2022-09-19T18:09:00;12.30;99.90
16801;DHT22;8518;53.236;10.384;2022-09-19T18:11:26;12.20;99.90
16801;DHT22;8518;53.236;10.384;2022-09-19T18:13:54;12.10;99.90
16801;DHT22;8518;53.236;10.384;2022-09-19T18:16:20;12.00;99.90
16801;DHT22;8518;53.236;10.384;2022-09-19T18:18:47;11.90;99.90
16801;DHT22;8518;53.236;10.384;2022-09-19T18:21:14;11.80;99.90
16801;DHT22;8518;53.236;10.384;2022-09-19T18:23:41;11.80;99.90
16801;DHT22;8518;53.236;10.384;2022-09-19T18:26:13;11.70;99.90
16801;DHT22;8518;53.236;10.384;2022-09-19T18:28:40;11.60;99.90
16801;DHT22;8518;53.236;10.384;2022-09-19T18:31:07;11.60;99.90
16801;DHT22;8518;53.236;10.384;2022-09-19T18:33:33;11.60;99.90
16801;DHT22;8518;53.236;10.384;2022-09-19T18:36:08;11.60;99.90
16801;DHT22;8518;53.236;10.384;2022-09-19T18:38:36;11.60;99.90
16801;DHT22;8518;53.236;10.384;2022-09-19T18:41:05;11.50;99.90
16801;DHT22;8518;53.236;10.384;2022-09-19T18:43:32;11.50;99.90
16801;DHT22;8518;53.236;10.384;2022-09-19T18:46:02;11.50;99.90
16801;DHT22;8518;53.236;10.384;2022-09-19T18:48:28;11.50;99.90
16801;DHT22;8518;53.236;10.384;2022-09-19T18:50:53;11.50;99.90
16801;DHT22;8518;53.236;10.384;2022-09-19T18:53:19;11.60;99.90
16801;DHT22;8518;53.236;10.384;2022-09-19T18:55:53;11.60;99.90
16801;DHT22;8518;53.236;10.384;2022-09-19T18:58:19;11.50;99.90
16801;DHT22;8518;53.236;10.384;2022-09-19T19:00:45;11.50;99.90
16801;DHT22;8518;53.236;10.384;2022-09-19T19:03:13;11.40;99.90
16801;DHT22;8518;53.236;10.384;2022-09-19T19:05:43;11.40;99.90
16801;DHT22;8518;53.236;10.384;2022-09-19T19:08:09;11.40;99.90
16801;DHT22;8518;53.236;10.384;2022-09-19T19:10:35;11.40;99.90
16801;DHT22;8518;53.236;10.384;2022-09-19T19:13:01;11.40;99.90